sensor_id;sensor_type;location;lat;lon;timestamp;P1;durP1;ratioP1;P2;durP2;ratioP2
43297;SDS011;28892;55.640;37.532;2022-08-06T00:00:39;16.80;;;11.93;;
43297;SDS011;28892;55.640;37.532;2022-08-06T00:03:07;14.73;;;11.30;;
43297;SDS011;28892;55.640;37.532;2022-08-06T00:05:33;16.88;;;11.90;;
43297;SDS011;28892;55.640;37.532;2022-08-06T00:07:58;15.02;;;11.70;;
43297;SDS011;28892;55.640;37.532;2022-08-06T00:10:24;15.07;;;11.63;;
43297;SDS011;28892;55.640;37.532;2022-08-06T00:12:51;13.57;;;11.88;;
43297;SDS011;28892;55.640;37.532;2022-08-06T00:15:17;13.93;;;11.15;;
43297;SDS011;28892;55.640;37.532;2022-08-06T00:17:44;12.05;;;10.63;;
43297;SDS011;28892;55.640;37.532;2022-08-06T00:20:11;14.77;;;11.48;;
43297;SDS011;28892;55.640;37.532;2022-08-06T00:22:38;13.45;;;11.98;;
43297;SDS011;28892;55.640;37.532;2022-08-06T00:25:04;17.13;;;12.05;;
43297;SDS011;28892;55.640;37.532;2022-08-06T00:27:30;17.13;;;11.70;;
43297;SDS011;28892;55.640;37.532;2022-08-06T00:29:56;14.05;;;11.43;;
43297;SDS011;28892;55.640;37.532;2022-08-06T00:32:22;15.15;;;11.52;;
43297;SDS011;28892;55.640;37.532;2022-08-06T00:34:47;15.98;;;11.85;;
43297;SDS011;28892;55.640;37.532;2022-08-06T00:37:13;13.55;;;11.73;;
43297;SDS011;28892;55.640;37.532;2022-08-06T00:39:39;14.93;;;11.75;;
43297;SDS011;28892;55.640;37.532;2022-08-06T00:42:04;15.43;;;11.65;;
43297;SDS011;28892;55.640;37.532;2022-08-06T00:44:30;14.65;;;11.10;;
43297;SDS011;28892;55.640;37.532;2022-08-06T00:46:56;15.27;;;11.55;;
43297;SDS011;28892;55.640;37.532;2022-08-06T00:49:21;13.57;;;11.80;;
43297;SDS011;28892;55.640;37.532;2022-08-06T00:51:47;14.10;;;11.63;;
43297;SDS011;28892;55.640;37.532;2022-08-06T00:54:15;17.02;;;11.68;;
43297;SDS011;28892;55.640;37.532;2022-08-06T00:56:41;17.45;;;11.27;;
43297;SDS011;28892;55.640;37.532;2022-08-06T00:59:07;14.15;;;11.05;;
43297;SDS011;28892;55.640;37.532;2022-08-06T01:01:32;15.40;;;11.57;;
43297;SDS011;28892;55.640;37.532;2022-08-06T01:03:58;13.82;;;11.45;;
43297;SDS011;28892;55.640;37.532;2022-08-06T01:06:24;15.35;;;11.15;;
43297;SDS011;28892;55.640;37.532;2022-08-06T01:08:50;16.75;;;12.20;;
43297;SDS011;28892;55.640;37.532;2022-08-06T01:11:15;13.85;;;12.40;;
43297;SDS011;28892;55.640;37.532;2022-08-06T01:13:41;18.00;;;12.00;;
43297;SDS011;28892;55.640;37.532;2022-08-06T01:16:10;15.55;;;11.68;;
43297;SDS011;28892;55.640;37.532;2022-08-06T01:18:51;14.20;;;11.77;;
43297;SDS011;28892;55.640;37.532;2022-08-06T01:26:59;14.10;;;11.70;;
43297;SDS011;28892;55.640;37.532;2022-08-06T01:29:48;15.45;;;12.27;;
43297;SDS011;28892;55.640;37.532;2022-08-06T01:32:19;12.82;;;11.43;;
43297;SDS011;28892;55.640;37.532;2022-08-06T01:34:53;16.52;;;12.32;;
43297;SDS011;28892;55.640;37.532;2022-08-06T01:37:22;17.65;;;12.05;;
43297;SDS011;28892;55.640;37.532;2022-08-06T01:39:53;16.05;;;11.60;;
43297;SDS011;28892;55.640;37.532;2022-08-06T01:42:22;14.85;;;12.10;;
43297;SDS011;28892;55.640;37.532;2022-08-06T01:44:51;16.90;;;11.85;;
43297;SDS011;28892;55.640;37.532;2022-08-06T01:47:19;16.83;;;12.27;;
43297;SDS011;28892;55.640;37.532;2022-08-06T01:49:48;14.95;;;11.70;;
43297;SDS011;28892;55.640;37.532;2022-08-06T01:52:16;14.20;;;12.32;;
43297;SDS011;28892;55.640;37.532;2022-08-06T01:54:44;14.00;;;12.50;;
43297;SDS011;28892;55.640;37.532;2022-08-06T01:57:13;17.52;;;12.68;;
43297;SDS011;28892;55.640;37.532;2022-08-06T01:59:44;15.98;;;11.32;;
43297;SDS011;28892;55.640;37.532;2022-08-06T02:02:21;15.03;;;11.83;;
43297;SDS011;28892;55.640;37.532;2022-08-06T02:04:52;16.42;;;12.43;;
43297;SDS011;28892;55.640;37.532;2022-08-06T02:07:25;16.02;;;12.23;;
43297;SDS011;28892;55.640;37.532;2022-08-06T02:09:53;15.10;;;11.63;;
43297;SDS011;28892;55.640;37.532;2022-08-06T02:12:21;13.27;;;11.88;;
43297;SDS011;28892;55.640;37.532;2022-08-06T02:14:57;15.60;;;11.82;;
43297;SDS011;28892;55.640;37.532;2022-08-06T02:17:31;15.13;;;12.70;;
43297;SDS011;28892;55.640;37.532;2022-08-06T02:20:03;15.30;;;12.38;;
43297;SDS011;28892;55.640;37.532;2022-08-06T02:22:31;16.67;;;12.35;;
43297;SDS011;28892;55.640;37.532;2022-08-06T02:25:04;18.33;;;12.35;;
43297;SDS011;28892;55.640;37.532;2022-08-06T02:27:33;14.43;;;12.10;;
43297;SDS011;28892;55.640;37.532;2022-08-06T02:30:02;14.30;;;12.13;;
43297;SDS011;28892;55.640;37.532;2022-08-06T02:32:29;13.93;;;11.57;;
43297;SDS011;28892;55.640;37.532;2022-08-06T02:34:54;14.38;;;11.88;;
43297;SDS011;28892;55.640;37.532;2022-08-06T02:37:22;14.02;;;11.70;;
43297;SDS011;28892;55.640;37.532;2022-08-06T02:39:56;13.45;;;11.95;;
43297;SDS011;28892;55.640;37.532;2022-08-06T02:45:15;14.65;;;11.93;;
43297;SDS011;28892;55.640;37.532;2022-08-06T02:50:27;14.68;;;12.55;;
43297;SDS011;28892;55.640;37.532;2022-08-06T02:53:08;15.07;;;11.80;;
43297;SDS011;28892;55.640;37.532;2022-08-06T02:55:37;14.00;;;11.85;;
43297;SDS011;28892;55.640;37.532;2022-08-06T02:58:17;16.70;;;12.15;;
43297;SDS011;28892;55.640;37.532;2022-08-06T03:00:48;14.70;;;11.77;;
43297;SDS011;28892;55.640;37.532;2022-08-06T03:03:17;13.60;;;12.20;;
43297;SDS011;28892;55.640;37.532;2022-08-06T03:05:46;14.10;;;12.70;;
43297;SDS011;28892;55.640;37.532;2022-08-06T03:08:17;15.65;;;12.68;;
43297;SDS011;28892;55.640;37.532;2022-08-06T03:10:46;17.40;;;12.73;;
43297;SDS011;28892;55.640;37.532;2022-08-06T03:13:13;15.90;;;12.68;;
43297;SDS011;28892;55.640;37.532;2022-08-06T03:15:41;16.52;;;13.20;;
43297;SDS011;28892;55.640;37.532;2022-08-06T03:18:08;17.23;;;12.68;;
43297;SDS011;28892;55.640;37.532;2022-08-06T03:20:37;14.32;;;12.60;;
43297;SDS011;28892;55.640;37.532;2022-08-06T03:23:06;18.02;;;12.93;;
43297;SDS011;28892;55.640;37.532;2022-08-06T03:25:36;17.50;;;13.55;;
43297;SDS011;28892;55.640;37.532;2022-08-06T03:28:04;14.23;;;12.70;;
43297;SDS011;28892;55.640;37.532;2022-08-06T03:30:31;17.90;;;13.15;;
43297;SDS011;28892;55.640;37.532;2022-08-06T03:32:57;14.18;;;12.68;;
43297;SDS011;28892;55.640;37.532;2022-08-06T03:35:29;15.70;;;12.93;;
43297;SDS011;28892;55.640;37.532;2022-08-06T03:37:55;15.20;;;12.80;;
43297;SDS011;28892;55.640;37.532;2022-08-06T03:40:21;16.02;;;13.82;;
43297;SDS011;28892;55.640;37.532;2022-08-06T03:42:49;16.05;;;13.75;;
43297;SDS011;28892;55.640;37.532;2022-08-06T03:45:15;19.35;;;14.50;;
43297;SDS011;28892;55.640;37.532;2022-08-06T03:48:03;19.85;;;14.05;;
43297;SDS011;28892;55.640;37.532;2022-08-06T03:50:31;16.67;;;13.43;;
43297;SDS011;28892;55.640;37.532;2022-08-06T03:53:04;16.58;;;13.07;;
43297;SDS011;28892;55.640;37.532;2022-08-06T03:55:34;16.30;;;14.60;;
43297;SDS011;28892;55.640;37.532;2022-08-06T03:58:02;17.70;;;14.43;;
43297;SDS011;28892;55.640;37.532;2022-08-06T04:00:34;17.67;;;14.20;;
43297;SDS011;28892;55.640;37.532;2022-08-06T04:03:07;17.42;;;14.93;;
43297;SDS011;28892;55.640;37.532;2022-08-06T04:05:33;17.58;;;14.50;;
43297;SDS011;28892;55.640;37.532;2022-08-06T04:08:03;20.05;;;14.55;;
43297;SDS011;28892;55.640;37.532;2022-08-06T04:10:36;23.67;;;15.82;;
43297;SDS011;28892;55.640;37.532;2022-08-06T04:13:07;19.90;;;15.98;;
43297;SDS011;28892;55.640;37.532;2022-08-06T04:15:36;19.20;;;15.85;;
43297;SDS011;28892;55.640;37.532;2022-08-06T04:18:03;19.63;;;15.75;;
43297;SDS011;28892;55.640;37.532;2022-08-06T04:20:32;18.20;;;15.13;;
43297;SDS011;28892;55.640;37.532;2022-08-06T04:22:59;24.05;;;15.43;;
43297;SDS011;28892;55.640;37.532;2022-08-06T04:25:26;17.45;;;15.55;;
43297;SDS011;28892;55.640;37.532;2022-08-06T04:27:55;22.63;;;17.10;;
43297;SDS011;28892;55.640;37.532;2022-08-06T04:30:24;20.00;;;16.90;;
43297;SDS011;28892;55.640;37.532;2022-08-06T04:32:53;19.52;;;15.77;;
43297;SDS011;28892;55.640;37.532;2022-08-06T04:35:19;20.58;;;15.82;;
43297;SDS011;28892;55.640;37.532;2022-08-06T04:37:47;20.17;;;15.30;;
43297;SDS011;28892;55.640;37.532;2022-08-06T04:40:13;16.50;;;14.70;;
43297;SDS011;28892;55.640;37.532;2022-08-06T04:42:40;20.08;;;14.93;;
43297;SDS011;28892;55.640;37.532;2022-08-06T04:45:07;16.70;;;14.90;;
43297;SDS011;28892;55.640;37.532;2022-08-06T04:47:34;19.70;;;14.48;;
43297;SDS011;28892;55.640;37.532;2022-08-06T04:50:01;17.65;;;14.43;;
43297;SDS011;28892;55.640;37.532;2022-08-06T04:52:29;16.65;;;14.57;;
43297;SDS011;28892;55.640;37.532;2022-08-06T04:54:55;19.70;;;13.88;;
43297;SDS011;28892;55.640;37.532;2022-08-06T04:57:20;16.60;;;13.98;;
43297;SDS011;28892;55.640;37.532;2022-08-06T04:59:46;16.23;;;13.82;;
43297;SDS011;28892;55.640;37.532;2022-08-06T05:02:12;18.38;;;13.82;;
43297;SDS011;28892;55.640;37.532;2022-08-06T05:04:38;15.45;;;13.65;;
43297;SDS011;28892;55.640;37.532;2022-08-06T05:07:08;17.25;;;13.77;;
43297;SDS011;28892;55.640;37.532;2022-08-06T05:09:46;19.88;;;14.38;;
43297;SDS011;28892;55.640;37.532;2022-08-06T05:12:31;15.68;;;12.98;;
43297;SDS011;28892;55.640;37.532;2022-08-06T05:15:03;17.30;;;13.50;;
43297;SDS011;28892;55.640;37.532;2022-08-06T05:17:32;13.82;;;12.32;;
43297;SDS011;28892;55.640;37.532;2022-08-06T05:20:12;17.35;;;12.98;;
43297;SDS011;28892;55.640;37.532;2022-08-06T05:22:41;15.30;;;12.55;;
43297;SDS011;28892;55.640;37.532;2022-08-06T05:25:08;15.00;;;12.88;;
43297;SDS011;28892;55.640;37.532;2022-08-06T05:27:36;16.40;;;13.55;;
43297;SDS011;28892;55.640;37.532;2022-08-06T05:30:03;19.45;;;13.48;;
43297;SDS011;28892;55.640;37.532;2022-08-06T05:32:29;18.83;;;13.20;;
43297;SDS011;28892;55.640;37.532;2022-08-06T05:34:55;17.40;;;12.65;;
43297;SDS011;28892;55.640;37.532;2022-08-06T05:37:21;17.80;;;12.95;;
43297;SDS011;28892;55.640;37.532;2022-08-06T05:39:47;17.23;;;12.50;;
43297;SDS011;28892;55.640;37.532;2022-08-06T05:42:12;20.45;;;13.63;;
43297;SDS011;28892;55.640;37.532;2022-08-06T05:44:38;15.68;;;11.98;;
43297;SDS011;28892;55.640;37.532;2022-08-06T05:47:04;16.25;;;12.45;;
43297;SDS011;28892;55.640;37.532;2022-08-06T05:49:44;15.80;;;12.18;;
43297;SDS011;28892;55.640;37.532;2022-08-06T05:52:17;18.42;;;12.07;;
43297;SDS011;28892;55.640;37.532;2022-08-06T05:57:20;15.40;;;11.82;;
43297;SDS011;28892;55.640;37.532;2022-08-06T05:59:55;16.65;;;12.15;;
43297;SDS011;28892;55.640;37.532;2022-08-06T06:02:26;13.15;;;11.55;;
43297;SDS011;28892;55.640;37.532;2022-08-06T06:04:53;22.42;;;12.95;;
43297;SDS011;28892;55.640;37.532;2022-08-06T06:07:20;14.57;;;11.73;;
43297;SDS011;28892;55.640;37.532;2022-08-06T06:09:46;12.93;;;11.60;;
43297;SDS011;28892;55.640;37.532;2022-08-06T06:12:12;18.13;;;12.25;;
43297;SDS011;28892;55.640;37.532;2022-08-06T06:14:39;14.10;;;11.43;;
43297;SDS011;28892;55.640;37.532;2022-08-06T06:19:40;17.10;;;11.77;;
43297;SDS011;28892;55.640;37.532;2022-08-06T06:25:02;16.90;;;10.98;;
43297;SDS011;28892;55.640;37.532;2022-08-06T06:30:16;14.23;;;9.77;;
43297;SDS011;28892;55.640;37.532;2022-08-06T06:32:50;13.27;;;10.13;;
43297;SDS011;28892;55.640;37.532;2022-08-06T06:38:14;13.45;;;9.65;;
43297;SDS011;28892;55.640;37.532;2022-08-06T06:40:57;13.85;;;9.25;;
43297;SDS011;28892;55.640;37.532;2022-08-06T06:43:43;13.10;;;10.13;;
43297;SDS011;28892;55.640;37.532;2022-08-06T06:48:55;15.15;;;9.23;;
43297;SDS011;28892;55.640;37.532;2022-08-06T06:51:32;11.90;;;9.00;;
43297;SDS011;28892;55.640;37.532;2022-08-06T06:54:01;11.95;;;9.23;;
43297;SDS011;28892;55.640;37.532;2022-08-06T06:56:28;14.13;;;9.55;;
43297;SDS011;28892;55.640;37.532;2022-08-06T06:59:04;14.65;;;9.93;;
43297;SDS011;28892;55.640;37.532;2022-08-06T07:01:34;13.20;;;9.75;;
43297;SDS011;28892;55.640;37.532;2022-08-06T07:04:03;10.57;;;9.18;;
43297;SDS011;28892;55.640;37.532;2022-08-06T07:06:34;12.38;;;9.18;;
43297;SDS011;28892;55.640;37.532;2022-08-06T07:09:01;14.18;;;9.05;;
43297;SDS011;28892;55.640;37.532;2022-08-06T07:11:28;12.40;;;8.50;;
43297;SDS011;28892;55.640;37.532;2022-08-06T07:13:56;13.27;;;9.50;;
43297;SDS011;28892;55.640;37.532;2022-08-06T07:16:24;13.55;;;8.60;;
43297;SDS011;28892;55.640;37.532;2022-08-06T07:18:51;10.32;;;8.80;;
43297;SDS011;28892;55.640;37.532;2022-08-06T07:21:18;11.57;;;8.60;;
43297;SDS011;28892;55.640;37.532;2022-08-06T07:23:47;15.27;;;8.18;;
43297;SDS011;28892;55.640;37.532;2022-08-06T07:26:17;11.88;;;8.45;;
43297;SDS011;28892;55.640;37.532;2022-08-06T07:28:46;11.85;;;8.10;;
43297;SDS011;28892;55.640;37.532;2022-08-06T07:31:13;9.40;;;8.02;;
43297;SDS011;28892;55.640;37.532;2022-08-06T07:33:41;13.95;;;8.50;;
43297;SDS011;28892;55.640;37.532;2022-08-06T07:36:10;14.20;;;8.20;;
43297;SDS011;28892;55.640;37.532;2022-08-06T07:38:40;10.15;;;8.68;;
43297;SDS011;28892;55.640;37.532;2022-08-06T07:41:09;10.68;;;7.80;;
43297;SDS011;28892;55.640;37.532;2022-08-06T07:43:43;10.10;;;8.38;;
43297;SDS011;28892;55.640;37.532;2022-08-06T07:46:14;10.60;;;8.38;;
43297;SDS011;28892;55.640;37.532;2022-08-06T07:48:45;9.02;;;7.53;;
43297;SDS011;28892;55.640;37.532;2022-08-06T07:51:13;13.32;;;9.05;;
43297;SDS011;28892;55.640;37.532;2022-08-06T07:53:41;13.18;;;8.80;;
43297;SDS011;28892;55.640;37.532;2022-08-06T07:56:09;11.52;;;8.65;;
43297;SDS011;28892;55.640;37.532;2022-08-06T07:58:36;11.50;;;8.43;;
43297;SDS011;28892;55.640;37.532;2022-08-06T08:01:02;9.90;;;8.48;;
43297;SDS011;28892;55.640;37.532;2022-08-06T08:03:30;12.60;;;7.78;;
43297;SDS011;28892;55.640;37.532;2022-08-06T08:06:16;9.02;;;8.13;;
43297;SDS011;28892;55.640;37.532;2022-08-06T08:08:43;10.63;;;8.02;;
43297;SDS011;28892;55.640;37.532;2022-08-06T08:11:10;9.93;;;7.50;;
43297;SDS011;28892;55.640;37.532;2022-08-06T08:13:38;11.75;;;8.07;;
43297;SDS011;28892;55.640;37.532;2022-08-06T08:16:04;11.02;;;7.85;;
43297;SDS011;28892;55.640;37.532;2022-08-06T08:18:33;9.45;;;7.43;;
43297;SDS011;28892;55.640;37.532;2022-08-06T08:20:59;13.35;;;11.45;;
43297;SDS011;28892;55.640;37.532;2022-08-06T08:23:26;11.13;;;8.00;;
43297;SDS011;28892;55.640;37.532;2022-08-06T08:26:02;9.80;;;7.28;;
43297;SDS011;28892;55.640;37.532;2022-08-06T08:28:28;11.88;;;7.68;;
43297;SDS011;28892;55.640;37.532;2022-08-06T08:30:57;7.68;;;6.88;;
43297;SDS011;28892;55.640;37.532;2022-08-06T08:33:31;8.68;;;6.40;;
43297;SDS011;28892;55.640;37.532;2022-08-06T08:35:59;6.40;;;5.70;;
43297;SDS011;28892;55.640;37.532;2022-08-06T08:38:33;7.55;;;6.07;;
43297;SDS011;28892;55.640;37.532;2022-08-06T08:41:09;12.25;;;5.97;;
43297;SDS011;28892;55.640;37.532;2022-08-06T08:43:50;7.13;;;5.78;;
43297;SDS011;28892;55.640;37.532;2022-08-06T08:46:22;8.65;;;6.28;;
43297;SDS011;28892;55.640;37.532;2022-08-06T08:48:49;10.80;;;6.97;;
43297;SDS011;28892;55.640;37.532;2022-08-06T08:51:15;7.70;;;5.53;;
43297;SDS011;28892;55.640;37.532;2022-08-06T08:53:48;8.95;;;5.40;;
43297;SDS011;28892;55.640;37.532;2022-08-06T08:56:17;5.47;;;4.70;;
43297;SDS011;28892;55.640;37.532;2022-08-06T08:58:43;6.80;;;5.03;;
43297;SDS011;28892;55.640;37.532;2022-08-06T09:01:10;7.07;;;5.13;;
43297;SDS011;28892;55.640;37.532;2022-08-06T09:03:36;6.28;;;4.60;;
43297;SDS011;28892;55.640;37.532;2022-08-06T09:06:04;6.38;;;4.85;;
43297;SDS011;28892;55.640;37.532;2022-08-06T09:08:31;7.00;;;5.10;;
43297;SDS011;28892;55.640;37.532;2022-08-06T09:10:58;7.35;;;5.45;;
43297;SDS011;28892;55.640;37.532;2022-08-06T09:13:27;8.50;;;5.47;;
43297;SDS011;28892;55.640;37.532;2022-08-06T09:15:53;6.55;;;5.68;;
43297;SDS011;28892;55.640;37.532;2022-08-06T09:18:20;6.70;;;5.38;;
43297;SDS011;28892;55.640;37.532;2022-08-06T09:20:47;6.43;;;5.65;;
43297;SDS011;28892;55.640;37.532;2022-08-06T09:23:14;6.00;;;5.40;;
43297;SDS011;28892;55.640;37.532;2022-08-06T09:25:44;7.07;;;5.55;;
43297;SDS011;28892;55.640;37.532;2022-08-06T09:28:33;8.55;;;5.60;;
43297;SDS011;28892;55.640;37.532;2022-08-06T09:31:03;6.38;;;5.25;;
43297;SDS011;28892;55.640;37.532;2022-08-06T09:33:36;7.13;;;5.97;;
43297;SDS011;28892;55.640;37.532;2022-08-06T09:36:07;7.13;;;5.60;;
43297;SDS011;28892;55.640;37.532;2022-08-06T09:38:55;6.80;;;5.68;;
43297;SDS011;28892;55.640;37.532;2022-08-06T09:41:24;5.85;;;5.22;;
43297;SDS011;28892;55.640;37.532;2022-08-06T09:43:53;7.15;;;5.43;;
43297;SDS011;28892;55.640;37.532;2022-08-06T09:46:39;9.38;;;5.10;;
43297;SDS011;28892;55.640;37.532;2022-08-06T09:49:10;6.68;;;5.30;;
43297;SDS011;28892;55.640;37.532;2022-08-06T09:51:37;9.23;;;5.50;;
43297;SDS011;28892;55.640;37.532;2022-08-06T09:54:07;8.45;;;5.10;;
43297;SDS011;28892;55.640;37.532;2022-08-06T09:56:35;6.20;;;5.23;;
43297;SDS011;28892;55.640;37.532;2022-08-06T09:59:03;9.18;;;4.97;;
43297;SDS011;28892;55.640;37.532;2022-08-06T10:01:42;6.22;;;5.30;;
43297;SDS011;28892;55.640;37.532;2022-08-06T10:04:13;9.40;;;5.15;;
43297;SDS011;28892;55.640;37.532;2022-08-06T10:06:59;5.95;;;4.95;;
43297;SDS011;28892;55.640;37.532;2022-08-06T10:09:27;9.25;;;5.18;;
43297;SDS011;28892;55.640;37.532;2022-08-06T10:11:54;6.47;;;5.03;;
43297;SDS011;28892;55.640;37.532;2022-08-06T10:14:27;7.50;;;5.10;;
43297;SDS011;28892;55.640;37.532;2022-08-06T10:17:12;7.28;;;5.50;;
43297;SDS011;28892;55.640;37.532;2022-08-06T10:20:02;7.63;;;5.30;;
43297;SDS011;28892;55.640;37.532;2022-08-06T10:22:36;8.10;;;5.38;;
43297;SDS011;28892;55.640;37.532;2022-08-06T10:25:15;7.55;;;5.25;;
43297;SDS011;28892;55.640;37.532;2022-08-06T10:27:42;6.78;;;5.05;;
43297;SDS011;28892;55.640;37.532;2022-08-06T10:30:09;6.10;;;5.50;;
43297;SDS011;28892;55.640;37.532;2022-08-06T10:35:17;5.88;;;5.35;;
43297;SDS011;28892;55.640;37.532;2022-08-06T10:37:44;7.30;;;5.68;;
43297;SDS011;28892;55.640;37.532;2022-08-06T10:40:13;7.38;;;5.22;;
43297;SDS011;28892;55.640;37.532;2022-08-06T10:42:40;6.32;;;5.10;;
43297;SDS011;28892;55.640;37.532;2022-08-06T10:45:09;6.25;;;5.07;;
43297;SDS011;28892;55.640;37.532;2022-08-06T10:47:37;6.20;;;5.40;;
43297;SDS011;28892;55.640;37.532;2022-08-06T10:50:05;5.72;;;5.05;;
43297;SDS011;28892;55.640;37.532;2022-08-06T10:52:32;8.52;;;5.60;;
43297;SDS011;28892;55.640;37.532;2022-08-06T10:54:59;7.07;;;6.38;;
43297;SDS011;28892;55.640;37.532;2022-08-06T10:57:26;6.63;;;5.20;;
43297;SDS011;28892;55.640;37.532;2022-08-06T10:59:52;6.30;;;5.32;;
43297;SDS011;28892;55.640;37.532;2022-08-06T11:05:20;5.70;;;5.13;;
43297;SDS011;28892;55.640;37.532;2022-08-06T11:08:02;6.47;;;5.40;;
43297;SDS011;28892;55.640;37.532;2022-08-06T11:13:36;8.68;;;5.32;;
43297;SDS011;28892;55.640;37.532;2022-08-06T11:16:21;7.25;;;5.47;;
43297;SDS011;28892;55.640;37.532;2022-08-06T11:19:08;7.72;;;5.03;;
43297;SDS011;28892;55.640;37.532;2022-08-06T11:21:45;5.97;;;5.20;;
43297;SDS011;28892;55.640;37.532;2022-08-06T11:24:12;5.57;;;5.07;;
43297;SDS011;28892;55.640;37.532;2022-08-06T11:26:41;5.40;;;4.90;;
43297;SDS011;28892;55.640;37.532;2022-08-06T11:29:09;6.53;;;5.47;;
43297;SDS011;28892;55.640;37.532;2022-08-06T11:31:37;7.85;;;5.43;;
43297;SDS011;28892;55.640;37.532;2022-08-06T11:34:12;5.90;;;5.40;;
43297;SDS011;28892;55.640;37.532;2022-08-06T11:41:53;9.85;;;5.07;;
43297;SDS011;28892;55.640;37.532;2022-08-06T11:44:26;7.07;;;5.45;;
43297;SDS011;28892;55.640;37.532;2022-08-06T11:47:26;7.53;;;4.93;;
43297;SDS011;28892;55.640;37.532;2022-08-06T11:49:46;6.07;;;5.35;;
43297;SDS011;28892;55.640;37.532;2022-08-06T11:55:01;7.97;;;5.50;;
43297;SDS011;28892;55.640;37.532;2022-08-06T11:57:30;6.40;;;5.25;;
43297;SDS011;28892;55.640;37.532;2022-08-06T12:07:44;6.53;;;5.22;;
43297;SDS011;28892;55.640;37.532;2022-08-06T12:10:14;7.25;;;4.70;;
43297;SDS011;28892;55.640;37.532;2022-08-06T12:22:54;10.32;;;5.30;;
43297;SDS011;28892;55.640;37.532;2022-08-06T12:25:20;7.88;;;5.35;;
43297;SDS011;28892;55.640;37.532;2022-08-06T12:27:46;7.57;;;5.40;;
43297;SDS011;28892;55.640;37.532;2022-08-06T12:30:12;9.73;;;5.65;;
43297;SDS011;28892;55.640;37.532;2022-08-06T12:32:38;7.25;;;5.22;;
43297;SDS011;28892;55.640;37.532;2022-08-06T12:35:13;7.00;;;4.90;;
43297;SDS011;28892;55.640;37.532;2022-08-06T12:37:40;8.27;;;5.72;;
43297;SDS011;28892;55.640;37.532;2022-08-06T12:40:08;8.60;;;5.28;;
43297;SDS011;28892;55.640;37.532;2022-08-06T12:45:29;6.43;;;5.13;;
43297;SDS011;28892;55.640;37.532;2022-08-06T12:47:57;7.60;;;5.22;;
43297;SDS011;28892;55.640;37.532;2022-08-06T12:50:23;11.20;;;5.30;;
43297;SDS011;28892;55.640;37.532;2022-08-06T12:55:35;7.70;;;5.63;;
43297;SDS011;28892;55.640;37.532;2022-08-06T12:58:07;5.35;;;4.85;;
43297;SDS011;28892;55.640;37.532;2022-08-06T13:00:34;10.57;;;5.20;;
43297;SDS011;28892;55.640;37.532;2022-08-06T13:03:00;6.22;;;5.10;;
43297;SDS011;28892;55.640;37.532;2022-08-06T13:05:28;8.13;;;5.40;;
43297;SDS011;28892;55.640;37.532;2022-08-06T13:07:55;7.95;;;5.10;;
43297;SDS011;28892;55.640;37.532;2022-08-06T13:10:21;6.78;;;4.95;;
43297;SDS011;28892;55.640;37.532;2022-08-06T13:12:54;8.95;;;5.68;;
43297;SDS011;28892;55.640;37.532;2022-08-06T13:15:31;8.30;;;5.28;;
43297;SDS011;28892;55.640;37.532;2022-08-06T13:18:07;7.07;;;5.20;;
43297;SDS011;28892;55.640;37.532;2022-08-06T13:20:37;7.75;;;5.47;;
43297;SDS011;28892;55.640;37.532;2022-08-06T13:23:04;7.20;;;5.13;;
43297;SDS011;28892;55.640;37.532;2022-08-06T13:25:39;10.63;;;6.10;;
43297;SDS011;28892;55.640;37.532;2022-08-06T13:28:12;7.03;;;5.20;;
43297;SDS011;28892;55.640;37.532;2022-08-06T13:33:31;7.43;;;5.63;;
43297;SDS011;28892;55.640;37.532;2022-08-06T13:36:06;8.68;;;5.85;;
43297;SDS011;28892;55.640;37.532;2022-08-06T13:38:34;8.75;;;5.93;;
43297;SDS011;28892;55.640;37.532;2022-08-06T13:41:01;6.68;;;5.70;;
43297;SDS011;28892;55.640;37.532;2022-08-06T13:43:38;11.95;;;6.03;;
43297;SDS011;28892;55.640;37.532;2022-08-06T13:48:34;9.98;;;5.57;;
43297;SDS011;28892;55.640;37.532;2022-08-06T13:51:00;11.48;;;5.32;;
43297;SDS011;28892;55.640;37.532;2022-08-06T13:53:25;9.10;;;5.32;;
43297;SDS011;28892;55.640;37.532;2022-08-06T13:55:51;8.15;;;5.07;;
43297;SDS011;28892;55.640;37.532;2022-08-06T13:58:17;6.55;;;5.45;;
43297;SDS011;28892;55.640;37.532;2022-08-06T14:00:42;7.63;;;5.15;;
43297;SDS011;28892;55.640;37.532;2022-08-06T14:03:12;7.55;;;5.45;;
43297;SDS011;28892;55.640;37.532;2022-08-06T14:05:38;7.63;;;5.00;;
43297;SDS011;28892;55.640;37.532;2022-08-06T14:08:04;7.63;;;5.57;;
43297;SDS011;28892;55.640;37.532;2022-08-06T14:10:30;6.18;;;5.15;;
43297;SDS011;28892;55.640;37.532;2022-08-06T14:12:56;5.80;;;5.20;;
43297;SDS011;28892;55.640;37.532;2022-08-06T14:15:40;8.95;;;5.03;;
43297;SDS011;28892;55.640;37.532;2022-08-06T14:18:06;6.90;;;5.35;;
43297;SDS011;28892;55.640;37.532;2022-08-06T14:20:32;7.43;;;5.65;;
43297;SDS011;28892;55.640;37.532;2022-08-06T14:22:58;8.40;;;4.97;;
43297;SDS011;28892;55.640;37.532;2022-08-06T14:25:27;7.90;;;5.75;;
43297;SDS011;28892;55.640;37.532;2022-08-06T14:27:53;8.43;;;5.32;;
43297;SDS011;28892;55.640;37.532;2022-08-06T14:30:19;5.60;;;5.00;;
43297;SDS011;28892;55.640;37.532;2022-08-06T14:32:46;6.78;;;5.05;;
43297;SDS011;28892;55.640;37.532;2022-08-06T14:35:12;8.85;;;5.53;;
43297;SDS011;28892;55.640;37.532;2022-08-06T14:37:38;7.18;;;4.78;;
43297;SDS011;28892;55.640;37.532;2022-08-06T14:40:04;8.30;;;5.07;;
43297;SDS011;28892;55.640;37.532;2022-08-06T14:42:30;11.70;;;4.97;;
43297;SDS011;28892;55.640;37.532;2022-08-06T14:45:15;9.30;;;4.88;;
43297;SDS011;28892;55.640;37.532;2022-08-06T14:47:41;8.52;;;5.07;;
43297;SDS011;28892;55.640;37.532;2022-08-06T14:50:07;8.55;;;5.53;;
43297;SDS011;28892;55.640;37.532;2022-08-06T14:52:33;6.97;;;5.10;;
43297;SDS011;28892;55.640;37.532;2022-08-06T14:54:59;7.53;;;4.85;;
43297;SDS011;28892;55.640;37.532;2022-08-06T14:57:26;7.93;;;4.65;;
43297;SDS011;28892;55.640;37.532;2022-08-06T14:59:52;6.10;;;4.63;;
43297;SDS011;28892;55.640;37.532;2022-08-06T15:02:22;9.18;;;4.80;;
43297;SDS011;28892;55.640;37.532;2022-08-06T15:04:49;7.15;;;4.70;;
43297;SDS011;28892;55.640;37.532;2022-08-06T15:07:19;6.00;;;5.07;;
43297;SDS011;28892;55.640;37.532;2022-08-06T15:09:45;9.93;;;5.07;;
43297;SDS011;28892;55.640;37.532;2022-08-06T15:12:11;8.90;;;5.20;;
43297;SDS011;28892;55.640;37.532;2022-08-06T15:14:36;5.10;;;4.32;;
43297;SDS011;28892;55.640;37.532;2022-08-06T15:17:02;9.32;;;4.90;;
43297;SDS011;28892;55.640;37.532;2022-08-06T15:19:28;7.72;;;4.53;;
43297;SDS011;28892;55.640;37.532;2022-08-06T15:21:53;6.63;;;4.50;;
43297;SDS011;28892;55.640;37.532;2022-08-06T15:24:19;9.88;;;4.30;;
43297;SDS011;28892;55.640;37.532;2022-08-06T15:26:45;9.80;;;4.85;;
43297;SDS011;28892;55.640;37.532;2022-08-06T15:29:11;6.30;;;4.28;;
43297;SDS011;28892;55.640;37.532;2022-08-06T15:31:37;8.80;;;4.85;;
43297;SDS011;28892;55.640;37.532;2022-08-06T15:34:03;7.97;;;4.57;;
43297;SDS011;28892;55.640;37.532;2022-08-06T15:36:30;6.85;;;4.47;;
43297;SDS011;28892;55.640;37.532;2022-08-06T15:38:56;5.18;;;4.40;;
43297;SDS011;28892;55.640;37.532;2022-08-06T15:41:22;7.43;;;5.57;;
43297;SDS011;28892;55.640;37.532;2022-08-06T15:43:49;9.02;;;5.80;;
43297;SDS011;28892;55.640;37.532;2022-08-06T15:46:15;7.35;;;4.75;;